sensor_id;sensor_type;location;lat;lon;timestamp;P1;durP1;ratioP1;P2;durP2;ratioP2
67378;SDS011;54262;44.642;-0.974;2023-06-14T00:01:35;5.35;;;5.15;;
67378;SDS011;54262;44.642;-0.974;2023-06-14T00:04:03;6.53;;;5.90;;
67378;SDS011;54262;44.642;-0.974;2023-06-14T00:06:31;5.32;;;5.13;;
67378;SDS011;54262;44.642;-0.974;2023-06-14T00:08:58;5.75;;;5.28;;
67378;SDS011;54262;44.642;-0.974;2023-06-14T00:11:26;9.95;;;6.30;;
67378;SDS011;54262;44.642;-0.974;2023-06-14T00:13:54;5.38;;;5.07;;
67378;SDS011;54262;44.642;-0.974;2023-06-14T00:16:20;6.05;;;5.60;;
67378;SDS011;54262;44.642;-0.974;2023-06-14T00:18:46;14.73;;;6.57;;
67378;SDS011;54262;44.642;-0.974;2023-06-14T00:21:14;4.97;;;4.78;;
67378;SDS011;54262;44.642;-0.974;2023-06-14T00:23:40;5.05;;;4.85;;
67378;SDS011;54262;44.642;-0.974;2023-06-14T00:26:05;6.32;;;5.93;;
67378;SDS011;54262;44.642;-0.974;2023-06-14T00:28:31;5.15;;;4.95;;
67378;SDS011;54262;44.642;-0.974;2023-06-14T00:30:57;4.40;;;4.20;;
67378;SDS011;54262;44.642;-0.974;2023-06-14T00:33:22;4.80;;;4.60;;
67378;SDS011;54262;44.642;-0.974;2023-06-14T00:35:49;5.22;;;5.03;;
67378;SDS011;54262;44.642;-0.974;2023-06-14T00:38:15;4.55;;;4.22;;
67378;SDS011;54262;44.642;-0.974;2023-06-14T00:40:40;5.18;;;4.88;;
67378;SDS011;54262;44.642;-0.974;2023-06-14T00:43:06;5.72;;;5.32;;
67378;SDS011;54262;44.642;-0.974;2023-06-14T00:45:32;5.50;;;5.22;;
67378;SDS011;54262;44.642;-0.974;2023-06-14T00:48:01;5.68;;;5.20;;
67378;SDS011;54262;44.642;-0.974;2023-06-14T00:50:27;14.98;;;5.80;;
67378;SDS011;54262;44.642;-0.974;2023-06-14T00:52:54;4.90;;;4.70;;
67378;SDS011;54262;44.642;-0.974;2023-06-14T00:55:21;4.68;;;4.47;;
67378;SDS011;54262;44.642;-0.974;2023-06-14T00:57:47;9.32;;;6.18;;
67378;SDS011;54262;44.642;-0.974;2023-06-14T01:00:14;11.10;;;6.85;;
67378;SDS011;54262;44.642;-0.974;2023-06-14T01:02:40;5.25;;;4.95;;
67378;SDS011;54262;44.642;-0.974;2023-06-14T01:05:06;5.50;;;5.10;;
67378;SDS011;54262;44.642;-0.974;2023-06-14T01:10:39;6.78;;;6.03;;
67378;SDS011;54262;44.642;-0.974;2023-06-14T01:13:40;12.65;;;6.13;;
67378;SDS011;54262;44.642;-0.974;2023-06-14T01:16:10;5.38;;;4.97;;
67378;SDS011;54262;44.642;-0.974;2023-06-14T01:18:37;4.82;;;4.57;;
67378;SDS011;54262;44.642;-0.974;2023-06-14T01:21:03;4.93;;;4.70;;
67378;SDS011;54262;44.642;-0.974;2023-06-14T01:23:32;5.03;;;4.72;;
67378;SDS011;54262;44.642;-0.974;2023-06-14T01:25:58;5.03;;;4.72;;
67378;SDS011;54262;44.642;-0.974;2023-06-14T01:28:25;5.53;;;5.10;;
67378;SDS011;54262;44.642;-0.974;2023-06-14T01:30:57;5.00;;;4.80;;
67378;SDS011;54262;44.642;-0.974;2023-06-14T01:33:28;4.95;;;4.65;;
67378;SDS011;54262;44.642;-0.974;2023-06-14T01:35:55;4.95;;;4.65;;
67378;SDS011;54262;44.642;-0.974;2023-06-14T01:38:23;4.72;;;4.50;;
67378;SDS011;54262;44.642;-0.974;2023-06-14T01:40:50;10.85;;;5.28;;
67378;SDS011;54262;44.642;-0.974;2023-06-14T01:43:19;4.80;;;4.50;;
67378;SDS011;54262;44.642;-0.974;2023-06-14T01:45:46;4.45;;;4.15;;
67378;SDS011;54262;44.642;-0.974;2023-06-14T01:48:13;4.85;;;4.65;;
67378;SDS011;54262;44.642;-0.974;2023-06-14T01:50:40;5.00;;;4.63;;
67378;SDS011;54262;44.642;-0.974;2023-06-14T01:53:09;4.18;;;3.97;;
67378;SDS011;54262;44.642;-0.974;2023-06-14T01:55:35;5.63;;;5.13;;
67378;SDS011;54262;44.642;-0.974;2023-06-14T01:58:02;12.43;;;6.10;;
67378;SDS011;54262;44.642;-0.974;2023-06-14T02:00:29;9.40;;;5.28;;
67378;SDS011;54262;44.642;-0.974;2023-06-14T02:02:55;7.95;;;5.88;;
67378;SDS011;54262;44.642;-0.974;2023-06-14T02:05:21;6.07;;;5.03;;
67378;SDS011;54262;44.642;-0.974;2023-06-14T02:07:47;8.38;;;5.55;;
67378;SDS011;54262;44.642;-0.974;2023-06-14T02:10:13;5.82;;;5.20;;
67378;SDS011;54262;44.642;-0.974;2023-06-14T02:12:39;5.00;;;4.60;;
67378;SDS011;54262;44.642;-0.974;2023-06-14T02:15:07;5.22;;;4.82;;
67378;SDS011;54262;44.642;-0.974;2023-06-14T02:17:36;5.43;;;5.13;;
67378;SDS011;54262;44.642;-0.974;2023-06-14T02:20:02;5.65;;;5.30;;
67378;SDS011;54262;44.642;-0.974;2023-06-14T02:22:28;5.57;;;4.90;;
67378;SDS011;54262;44.642;-0.974;2023-06-14T02:24:54;8.52;;;5.28;;
67378;SDS011;54262;44.642;-0.974;2023-06-14T02:27:19;5.20;;;4.45;;
67378;SDS011;54262;44.642;-0.974;2023-06-14T02:29:45;7.25;;;5.03;;
67378;SDS011;54262;44.642;-0.974;2023-06-14T02:32:11;4.93;;;4.53;;
67378;SDS011;54262;44.642;-0.974;2023-06-14T02:34:36;5.30;;;4.90;;
67378;SDS011;54262;44.642;-0.974;2023-06-14T02:37:05;8.23;;;4.57;;
67378;SDS011;54262;44.642;-0.974;2023-06-14T02:39:31;8.05;;;5.30;;
67378;SDS011;54262;44.642;-0.974;2023-06-14T02:41:57;5.55;;;4.50;;
67378;SDS011;54262;44.642;-0.974;2023-06-14T02:44:26;5.30;;;4.68;;
67378;SDS011;54262;44.642;-0.974;2023-06-14T02:46:52;5.80;;;5.15;;
67378;SDS011;54262;44.642;-0.974;2023-06-14T02:49:19;8.55;;;5.03;;
67378;SDS011;54262;44.642;-0.974;2023-06-14T02:51:45;4.82;;;4.45;;
67378;SDS011;54262;44.642;-0.974;2023-06-14T02:54:10;5.78;;;5.38;;
67378;SDS011;54262;44.642;-0.974;2023-06-14T02:56:36;4.97;;;4.57;;
67378;SDS011;54262;44.642;-0.974;2023-06-14T02:59:02;4.95;;;4.65;;
67378;SDS011;54262;44.642;-0.974;2023-06-14T03:01:27;5.05;;;4.75;;
67378;SDS011;54262;44.642;-0.974;2023-06-14T03:04:02;6.35;;;5.20;;
67378;SDS011;54262;44.642;-0.974;2023-06-14T03:06:28;5.63;;;5.32;;
67378;SDS011;54262;44.642;-0.974;2023-06-14T03:08:57;15.88;;;6.05;;
67378;SDS011;54262;44.642;-0.974;2023-06-14T03:11:25;9.45;;;6.10;;
67378;SDS011;54262;44.642;-0.974;2023-06-14T03:13:51;14.40;;;6.72;;
67378;SDS011;54262;44.642;-0.974;2023-06-14T03:16:19;4.90;;;4.63;;
67378;SDS011;54262;44.642;-0.974;2023-06-14T03:18:48;6.28;;;5.47;;
67378;SDS011;54262;44.642;-0.974;2023-06-14T03:21:17;4.85;;;4.57;;
67378;SDS011;54262;44.642;-0.974;2023-06-14T03:23:46;7.47;;;5.90;;
67378;SDS011;54262;44.642;-0.974;2023-06-14T03:26:12;8.57;;;5.90;;
67378;SDS011;54262;44.642;-0.974;2023-06-14T03:28:39;7.10;;;6.25;;
67378;SDS011;54262;44.642;-0.974;2023-06-14T03:31:05;15.00;;;7.10;;
67378;SDS011;54262;44.642;-0.974;2023-06-14T03:33:31;9.98;;;6.85;;
67378;SDS011;54262;44.642;-0.974;2023-06-14T03:35:57;10.40;;;6.78;;
67378;SDS011;54262;44.642;-0.974;2023-06-14T03:38:22;8.20;;;7.45;;
67378;SDS011;54262;44.642;-0.974;2023-06-14T03:40:48;9.90;;;7.00;;
67378;SDS011;54262;44.642;-0.974;2023-06-14T03:43:14;20.75;;;8.07;;
67378;SDS011;54262;44.642;-0.974;2023-06-14T03:45:39;13.48;;;8.10;;
67378;SDS011;54262;44.642;-0.974;2023-06-14T03:48:05;15.25;;;7.97;;
67378;SDS011;54262;44.642;-0.974;2023-06-14T03:50:32;15.10;;;8.07;;
67378;SDS011;54262;44.642;-0.974;2023-06-14T03:52:58;11.75;;;7.47;;
67378;SDS011;54262;44.642;-0.974;2023-06-14T03:55:23;6.32;;;5.82;;
67378;SDS011;54262;44.642;-0.974;2023-06-14T03:57:51;6.55;;;5.97;;
67378;SDS011;54262;44.642;-0.974;2023-06-14T04:00:17;5.82;;;5.40;;
67378;SDS011;54262;44.642;-0.974;2023-06-14T04:02:43;9.10;;;6.47;;
67378;SDS011;54262;44.642;-0.974;2023-06-14T04:05:09;4.85;;;4.50;;
67378;SDS011;54262;44.642;-0.974;2023-06-14T04:07:35;8.73;;;5.47;;
67378;SDS011;54262;44.642;-0.974;2023-06-14T04:12:36;9.18;;;6.20;;
67378;SDS011;54262;44.642;-0.974;2023-06-14T04:15:01;5.78;;;5.28;;
67378;SDS011;54262;44.642;-0.974;2023-06-14T04:17:30;6.20;;;5.70;;
67378;SDS011;54262;44.642;-0.974;2023-06-14T04:19:58;7.90;;;6.35;;
67378;SDS011;54262;44.642;-0.974;2023-06-14T04:22:25;22.30;;;9.52;;
67378;SDS011;54262;44.642;-0.974;2023-06-14T04:24:54;11.38;;;8.75;;
67378;SDS011;54262;44.642;-0.974;2023-06-14T04:27:23;19.92;;;9.23;;
67378;SDS011;54262;44.642;-0.974;2023-06-14T04:29:51;6.75;;;6.30;;
67378;SDS011;54262;44.642;-0.974;2023-06-14T04:32:27;7.38;;;6.93;;
67378;SDS011;54262;44.642;-0.974;2023-06-14T04:34:54;12.07;;;9.57;;
67378;SDS011;54262;44.642;-0.974;2023-06-14T04:37:23;7.13;;;5.88;;
67378;SDS011;54262;44.642;-0.974;2023-06-14T04:39:49;13.52;;;9.15;;
67378;SDS011;54262;44.642;-0.974;2023-06-14T04:42:16;11.00;;;7.20;;
67378;SDS011;54262;44.642;-0.974;2023-06-14T04:44:45;5.22;;;4.82;;
67378;SDS011;54262;44.642;-0.974;2023-06-14T04:47:12;9.80;;;7.28;;
67378;SDS011;54262;44.642;-0.974;2023-06-14T04:49:39;6.00;;;5.60;;
67378;SDS011;54262;44.642;-0.974;2023-06-14T04:52:06;5.93;;;5.47;;
67378;SDS011;54262;44.642;-0.974;2023-06-14T04:54:32;10.02;;;7.47;;
67378;SDS011;54262;44.642;-0.974;2023-06-14T04:56:59;9.00;;;7.00;;
67378;SDS011;54262;44.642;-0.974;2023-06-14T04:59:24;7.43;;;6.65;;
67378;SDS011;54262;44.642;-0.974;2023-06-14T05:01:50;14.40;;;9.45;;
67378;SDS011;54262;44.642;-0.974;2023-06-14T05:04:18;20.08;;;9.57;;
67378;SDS011;54262;44.642;-0.974;2023-06-14T05:06:44;8.82;;;8.07;;
67378;SDS011;54262;44.642;-0.974;2023-06-14T05:09:10;13.50;;;9.75;;
67378;SDS011;54262;44.642;-0.974;2023-06-14T05:11:37;10.05;;;7.60;;
67378;SDS011;54262;44.642;-0.974;2023-06-14T05:14:02;11.45;;;9.43;;
67378;SDS011;54262;44.642;-0.974;2023-06-14T05:16:28;22.38;;;10.15;;
67378;SDS011;54262;44.642;-0.974;2023-06-14T05:18:56;18.73;;;9.30;;
67378;SDS011;54262;44.642;-0.974;2023-06-14T05:21:25;32.95;;;13.38;;
67378;SDS011;54262;44.642;-0.974;2023-06-14T05:23:50;28.13;;;10.50;;
67378;SDS011;54262;44.642;-0.974;2023-06-14T05:26:16;7.10;;;6.13;;
67378;SDS011;54262;44.642;-0.974;2023-06-14T05:28:42;17.50;;;10.32;;
67378;SDS011;54262;44.642;-0.974;2023-06-14T05:31:08;26.50;;;12.00;;
67378;SDS011;54262;44.642;-0.974;2023-06-14T05:33:33;11.32;;;7.47;;
67378;SDS011;54262;44.642;-0.974;2023-06-14T05:35:59;9.18;;;6.85;;
67378;SDS011;54262;44.642;-0.974;2023-06-14T05:38:25;14.55;;;8.55;;
67378;SDS011;54262;44.642;-0.974;2023-06-14T05:40:50;7.28;;;6.18;;
67378;SDS011;54262;44.642;-0.974;2023-06-14T05:43:16;23.98;;;11.88;;
67378;SDS011;54262;44.642;-0.974;2023-06-14T05:45:42;10.57;;;9.48;;
67378;SDS011;54262;44.642;-0.974;2023-06-14T05:48:07;9.13;;;8.23;;
67378;SDS011;54262;44.642;-0.974;2023-06-14T05:50:33;11.05;;;7.70;;
67378;SDS011;54262;44.642;-0.974;2023-06-14T05:52:59;8.05;;;7.07;;
67378;SDS011;54262;44.642;-0.974;2023-06-14T05:55:25;9.88;;;6.78;;
67378;SDS011;54262;44.642;-0.974;2023-06-14T05:57:50;22.95;;;10.27;;
67378;SDS011;54262;44.642;-0.974;2023-06-14T06:00:17;7.85;;;7.20;;
67378;SDS011;54262;44.642;-0.974;2023-06-14T06:02:43;31.02;;;12.23;;
67378;SDS011;54262;44.642;-0.974;2023-06-14T06:05:09;9.98;;;9.05;;
67378;SDS011;54262;44.642;-0.974;2023-06-14T06:07:36;21.23;;;11.52;;
67378;SDS011;54262;44.642;-0.974;2023-06-14T06:10:03;22.73;;;11.57;;
67378;SDS011;54262;44.642;-0.974;2023-06-14T06:12:29;19.33;;;13.07;;
67378;SDS011;54262;44.642;-0.974;2023-06-14T06:14:55;22.90;;;12.00;;
67378;SDS011;54262;44.642;-0.974;2023-06-14T06:17:21;12.40;;;10.68;;
67378;SDS011;54262;44.642;-0.974;2023-06-14T06:19:49;11.38;;;7.53;;
67378;SDS011;54262;44.642;-0.974;2023-06-14T06:22:17;6.22;;;5.70;;
67378;SDS011;54262;44.642;-0.974;2023-06-14T06:24:43;10.75;;;8.32;;
67378;SDS011;54262;44.642;-0.974;2023-06-14T06:27:08;17.98;;;10.07;;
67378;SDS011;54262;44.642;-0.974;2023-06-14T06:29:35;23.55;;;10.27;;
67378;SDS011;54262;44.642;-0.974;2023-06-14T06:32:01;11.02;;;9.95;;
67378;SDS011;54262;44.642;-0.974;2023-06-14T06:34:27;22.35;;;11.38;;
67378;SDS011;54262;44.642;-0.974;2023-06-14T06:36:53;19.13;;;12.52;;
67378;SDS011;54262;44.642;-0.974;2023-06-14T06:39:19;15.27;;;12.60;;
67378;SDS011;54262;44.642;-0.974;2023-06-14T06:41:44;14.70;;;9.75;;
67378;SDS011;54262;44.642;-0.974;2023-06-14T06:44:10;14.05;;;11.07;;
67378;SDS011;54262;44.642;-0.974;2023-06-14T06:46:36;8.90;;;8.00;;
67378;SDS011;54262;44.642;-0.974;2023-06-14T06:49:09;6.43;;;5.93;;
67378;SDS011;54262;44.642;-0.974;2023-06-14T06:51:36;22.10;;;11.00;;
67378;SDS011;54262;44.642;-0.974;2023-06-14T06:54:02;8.23;;;7.65;;
67378;SDS011;54262;44.642;-0.974;2023-06-14T06:56:28;7.13;;;6.47;;
67378;SDS011;54262;44.642;-0.974;2023-06-14T06:58:54;14.50;;;11.05;;
67378;SDS011;54262;44.642;-0.974;2023-06-14T07:01:19;13.77;;;9.52;;
67378;SDS011;54262;44.642;-0.974;2023-06-14T07:03:45;5.85;;;5.55;;
67378;SDS011;54262;44.642;-0.974;2023-06-14T07:06:12;15.15;;;11.02;;
67378;SDS011;54262;44.642;-0.974;2023-06-14T07:08:37;6.25;;;5.85;;
67378;SDS011;54262;44.642;-0.974;2023-06-14T07:11:03;10.15;;;8.50;;
67378;SDS011;54262;44.642;-0.974;2023-06-14T07:13:30;7.00;;;6.60;;
67378;SDS011;54262;44.642;-0.974;2023-06-14T07:15:57;8.13;;;7.50;;
67378;SDS011;54262;44.642;-0.974;2023-06-14T07:18:25;6.88;;;6.28;;
67378;SDS011;54262;44.642;-0.974;2023-06-14T07:20:54;23.75;;;11.90;;
67378;SDS011;54262;44.642;-0.974;2023-06-14T07:23:21;13.23;;;9.65;;
67378;SDS011;54262;44.642;-0.974;2023-06-14T07:25:47;23.58;;;11.15;;
67378;SDS011;54262;44.642;-0.974;2023-06-14T07:28:13;23.02;;;11.07;;
67378;SDS011;54262;44.642;-0.974;2023-06-14T07:30:39;27.63;;;12.50;;
67378;SDS011;54262;44.642;-0.974;2023-06-14T07:33:05;17.83;;;10.98;;
67378;SDS011;54262;44.642;-0.974;2023-06-14T07:35:31;16.35;;;9.82;;
67378;SDS011;54262;44.642;-0.974;2023-06-14T07:37:56;21.50;;;11.80;;
67378;SDS011;54262;44.642;-0.974;2023-06-14T07:40:22;12.02;;;10.70;;
67378;SDS011;54262;44.642;-0.974;2023-06-14T07:42:48;9.35;;;8.55;;
67378;SDS011;54262;44.642;-0.974;2023-06-14T07:45:15;18.85;;;10.43;;
67378;SDS011;54262;44.642;-0.974;2023-06-14T07:47:41;10.63;;;9.63;;
67378;SDS011;54262;44.642;-0.974;2023-06-14T07:50:07;9.13;;;8.38;;
67378;SDS011;54262;44.642;-0.974;2023-06-14T07:52:33;10.75;;;9.70;;
67378;SDS011;54262;44.642;-0.974;2023-06-14T07:54:58;9.18;;;8.27;;
67378;SDS011;54262;44.642;-0.974;2023-06-14T07:57:25;9.75;;;9.05;;
67378;SDS011;54262;44.642;-0.974;2023-06-14T07:59:51;14.48;;;10.50;;
67378;SDS011;54262;44.642;-0.974;2023-06-14T08:02:17;10.95;;;9.85;;
67378;SDS011;54262;44.642;-0.974;2023-06-14T08:04:43;10.43;;;9.55;;
67378;SDS011;54262;44.642;-0.974;2023-06-14T08:07:09;9.40;;;8.57;;
67378;SDS011;54262;44.642;-0.974;2023-06-14T08:09:35;10.88;;;8.95;;
67378;SDS011;54262;44.642;-0.974;2023-06-14T08:12:03;14.02;;;11.60;;
67378;SDS011;54262;44.642;-0.974;2023-06-14T08:14:32;15.88;;;9.98;;
67378;SDS011;54262;44.642;-0.974;2023-06-14T08:16:58;10.77;;;9.85;;
67378;SDS011;54262;44.642;-0.974;2023-06-14T08:19:24;10.30;;;9.30;;
67378;SDS011;54262;44.642;-0.974;2023-06-14T08:21:52;15.05;;;11.23;;
67378;SDS011;54262;44.642;-0.974;2023-06-14T08:24:23;13.38;;;10.02;;
67378;SDS011;54262;44.642;-0.974;2023-06-14T08:26:54;12.85;;;11.60;;
67378;SDS011;54262;44.642;-0.974;2023-06-14T08:29:22;19.58;;;11.57;;
67378;SDS011;54262;44.642;-0.974;2023-06-14T08:31:47;8.90;;;8.15;;
67378;SDS011;54262;44.642;-0.974;2023-06-14T08:34:13;10.70;;;9.70;;
67378;SDS011;54262;44.642;-0.974;2023-06-14T08:36:41;12.82;;;11.50;;
67378;SDS011;54262;44.642;-0.974;2023-06-14T08:39:07;12.40;;;8.80;;
67378;SDS011;54262;44.642;-0.974;2023-06-14T08:41:34;13.95;;;10.25;;
67378;SDS011;54262;44.642;-0.974;2023-06-14T08:44:00;15.50;;;10.88;;
67378;SDS011;54262;44.642;-0.974;2023-06-14T08:46:26;13.15;;;10.40;;
67378;SDS011;54262;44.642;-0.974;2023-06-14T08:48:52;13.65;;;10.30;;
67378;SDS011;54262;44.642;-0.974;2023-06-14T08:51:21;11.35;;;10.40;;
67378;SDS011;54262;44.642;-0.974;2023-06-14T08:53:52;13.57;;;10.95;;
67378;SDS011;54262;44.642;-0.974;2023-06-14T08:56:22;13.27;;;11.02;;
67378;SDS011;54262;44.642;-0.974;2023-06-14T08:58:52;17.80;;;13.27;;
67378;SDS011;54262;44.642;-0.974;2023-06-14T09:01:19;16.73;;;12.43;;
67378;SDS011;54262;44.642;-0.974;2023-06-14T09:03:46;16.48;;;13.38;;
67378;SDS011;54262;44.642;-0.974;2023-06-14T09:06:13;12.77;;;11.57;;
67378;SDS011;54262;44.642;-0.974;2023-06-14T09:08:43;9.38;;;8.77;;
67378;SDS011;54262;44.642;-0.974;2023-06-14T09:11:11;16.92;;;11.50;;
67378;SDS011;54262;44.642;-0.974;2023-06-14T09:13:38;12.75;;;11.55;;
67378;SDS011;54262;44.642;-0.974;2023-06-14T09:16:04;14.52;;;12.15;;
67378;SDS011;54262;44.642;-0.974;2023-06-14T09:18:34;21.73;;;12.60;;
67378;SDS011;54262;44.642;-0.974;2023-06-14T09:21:18;13.30;;;12.02;;
67378;SDS011;54262;44.642;-0.974;2023-06-14T09:23:48;11.75;;;10.95;;
67378;SDS011;54262;44.642;-0.974;2023-06-14T09:26:16;9.38;;;8.50;;
67378;SDS011;54262;44.642;-0.974;2023-06-14T09:28:48;9.95;;;9.43;;
67378;SDS011;54262;44.642;-0.974;2023-06-14T09:31:19;10.18;;;9.55;;
67378;SDS011;54262;44.642;-0.974;2023-06-14T09:33:48;12.15;;;11.05;;
67378;SDS011;54262;44.642;-0.974;2023-06-14T09:36:18;13.50;;;12.05;;
67378;SDS011;54262;44.642;-0.974;2023-06-14T09:41:31;10.55;;;9.95;;
67378;SDS011;54262;44.642;-0.974;2023-06-14T09:44:05;12.52;;;9.93;;
67378;SDS011;54262;44.642;-0.974;2023-06-14T09:46:35;11.90;;;10.43;;
67378;SDS011;54262;44.642;-0.974;2023-06-14T09:49:02;10.60;;;9.93;;
67378;SDS011;54262;44.642;-0.974;2023-06-14T09:51:28;10.63;;;9.90;;
67378;SDS011;54262;44.642;-0.974;2023-06-14T09:53:58;7.03;;;6.40;;
67378;SDS011;54262;44.642;-0.974;2023-06-14T09:56:28;10.40;;;9.80;;
67378;SDS011;54262;44.642;-0.974;2023-06-14T09:58:56;10.35;;;9.30;;
67378;SDS011;54262;44.642;-0.974;2023-06-14T10:01:26;10.45;;;9.50;;
67378;SDS011;54262;44.642;-0.974;2023-06-14T10:03:58;8.82;;;8.23;;
67378;SDS011;54262;44.642;-0.974;2023-06-14T10:06:28;11.20;;;10.35;;
67378;SDS011;54262;44.642;-0.974;2023-06-14T10:08:56;11.30;;;10.20;;
67378;SDS011;54262;44.642;-0.974;2023-06-14T10:11:27;11.75;;;10.73;;
67378;SDS011;54262;44.642;-0.974;2023-06-14T10:13:54;12.25;;;11.50;;
67378;SDS011;54262;44.642;-0.974;2023-06-14T10:24:45;9.40;;;8.80;;
67378;SDS011;54262;44.642;-0.974;2023-06-14T10:27:13;11.13;;;9.85;;
67378;SDS011;54262;44.642;-0.974;2023-06-14T10:32:23;11.43;;;10.48;;
67378;SDS011;54262;44.642;-0.974;2023-06-14T10:34:54;12.30;;;10.75;;
67378;SDS011;54262;44.642;-0.974;2023-06-14T10:37:21;12.50;;;9.18;;
67378;SDS011;54262;44.642;-0.974;2023-06-14T10:39:47;9.93;;;8.80;;
67378;SDS011;54262;44.642;-0.974;2023-06-14T10:42:14;9.65;;;8.75;;
67378;SDS011;54262;44.642;-0.974;2023-06-14T10:44:41;9.35;;;8.63;;
67378;SDS011;54262;44.642;-0.974;2023-06-14T10:47:10;9.07;;;8.38;;
67378;SDS011;54262;44.642;-0.974;2023-06-14T10:49:49;10.27;;;9.20;;
67378;SDS011;54262;44.642;-0.974;2023-06-14T10:52:17;9.38;;;8.77;;
67378;SDS011;54262;44.642;-0.974;2023-06-14T10:54:55;9.98;;;8.98;;
67378;SDS011;54262;44.642;-0.974;2023-06-14T10:57:21;13.00;;;10.35;;
67378;SDS011;54262;44.642;-0.974;2023-06-14T10:59:47;8.50;;;7.97;;
67378;SDS011;54262;44.642;-0.974;2023-06-14T11:05:06;10.45;;;9.60;;
67378;SDS011;54262;44.642;-0.974;2023-06-14T11:10:26;10.55;;;9.93;;
67378;SDS011;54262;44.642;-0.974;2023-06-14T11:12:58;10.88;;;10.02;;
67378;SDS011;54262;44.642;-0.974;2023-06-14T11:15:28;9.57;;;8.88;;
67378;SDS011;54262;44.642;-0.974;2023-06-14T11:17:57;9.90;;;9.30;;
67378;SDS011;54262;44.642;-0.974;2023-06-14T11:20:26;9.70;;;8.98;;
67378;SDS011;54262;44.642;-0.974;2023-06-14T11:22:52;9.30;;;8.60;;
67378;SDS011;54262;44.642;-0.974;2023-06-14T11:25:21;9.77;;;8.93;;
67378;SDS011;54262;44.642;-0.974;2023-06-14T11:27:49;8.88;;;8.48;;
67378;SDS011;54262;44.642;-0.974;2023-06-14T11:30:16;10.45;;;9.75;;
67378;SDS011;54262;44.642;-0.974;2023-06-14T11:32:42;10.60;;;9.73;;
67378;SDS011;54262;44.642;-0.974;2023-06-14T11:35:10;9.77;;;9.35;;
67378;SDS011;54262;44.642;-0.974;2023-06-14T11:37:36;9.13;;;8.27;;
67378;SDS011;54262;44.642;-0.974;2023-06-14T11:40:03;9.75;;;8.88;;
67378;SDS011;54262;44.642;-0.974;2023-06-14T11:42:36;8.57;;;8.07;;
67378;SDS011;54262;44.642;-0.974;2023-06-14T11:45:03;11.20;;;8.95;;
67378;SDS011;54262;44.642;-0.974;2023-06-14T11:47:32;9.60;;;8.98;;
67378;SDS011;54262;44.642;-0.974;2023-06-14T11:49:59;9.40;;;8.73;;
67378;SDS011;54262;44.642;-0.974;2023-06-14T11:52:25;9.68;;;8.98;;
67378;SDS011;54262;44.642;-0.974;2023-06-14T11:54:51;9.65;;;9.05;;
67378;SDS011;54262;44.642;-0.974;2023-06-14T11:57:18;9.20;;;8.65;;
67378;SDS011;54262;44.642;-0.974;2023-06-14T11:59:44;8.52;;;7.93;;
67378;SDS011;54262;44.642;-0.974;2023-06-14T12:02:19;7.57;;;7.28;;
67378;SDS011;54262;44.642;-0.974;2023-06-14T12:04:47;8.45;;;7.68;;
67378;SDS011;54262;44.642;-0.974;2023-06-14T12:07:16;10.40;;;7.47;;
67378;SDS011;54262;44.642;-0.974;2023-06-14T12:12:23;18.23;;;7.82;;
67378;SDS011;54262;44.642;-0.974;2023-06-14T12:14:52;16.83;;;8.23;;
67378;SDS011;54262;44.642;-0.974;2023-06-14T12:17:21;11.60;;;8.55;;
67378;SDS011;54262;44.642;-0.974;2023-06-14T12:19:48;8.25;;;7.68;;
67378;SDS011;54262;44.642;-0.974;2023-06-14T12:22:14;16.02;;;8.85;;
67378;SDS011;54262;44.642;-0.974;2023-06-14T12:24:44;10.52;;;7.82;;
67378;SDS011;54262;44.642;-0.974;2023-06-14T12:27:12;14.88;;;9.80;;
67378;SDS011;54262;44.642;-0.974;2023-06-14T12:29:40;8.82;;;7.07;;
67378;SDS011;54262;44.642;-0.974;2023-06-14T12:32:08;8.27;;;7.55;;
67378;SDS011;54262;44.642;-0.974;2023-06-14T12:34:35;9.40;;;6.47;;
67378;SDS011;54262;44.642;-0.974;2023-06-14T12:37:00;8.82;;;7.50;;
67378;SDS011;54262;44.642;-0.974;2023-06-14T12:39:28;8.70;;;7.93;;
67378;SDS011;54262;44.642;-0.974;2023-06-14T12:41:55;9.27;;;8.38;;
67378;SDS011;54262;44.642;-0.974;2023-06-14T12:44:20;10.65;;;9.65;;
67378;SDS011;54262;44.642;-0.974;2023-06-14T12:46:46;9.43;;;7.38;;
67378;SDS011;54262;44.642;-0.974;2023-06-14T12:49:12;9.18;;;8.40;;
67378;SDS011;54262;44.642;-0.974;2023-06-14T12:51:40;18.15;;;9.30;;
67378;SDS011;54262;44.642;-0.974;2023-06-14T12:54:06;8.45;;;7.75;;
67378;SDS011;54262;44.642;-0.974;2023-06-14T12:56:32;11.52;;;10.63;;
67378;SDS011;54262;44.642;-0.974;2023-06-14T12:58:58;9.80;;;9.02;;
67378;SDS011;54262;44.642;-0.974;2023-06-14T13:01:24;7.25;;;6.30;;
67378;SDS011;54262;44.642;-0.974;2023-06-14T13:03:49;8.70;;;8.00;;
67378;SDS011;54262;44.642;-0.974;2023-06-14T13:06:16;8.73;;;7.28;;
67378;SDS011;54262;44.642;-0.974;2023-06-14T13:08:42;7.90;;;6.68;;
67378;SDS011;54262;44.642;-0.974;2023-06-14T13:11:08;8.73;;;8.07;;
67378;SDS011;54262;44.642;-0.974;2023-06-14T13:13:34;6.85;;;6.55;;
67378;SDS011;54262;44.642;-0.974;2023-06-14T13:16:00;7.85;;;7.38;;
67378;SDS011;54262;44.642;-0.974;2023-06-14T13:18:26;7.90;;;7.25;;
67378;SDS011;54262;44.642;-0.974;2023-06-14T13:20:53;6.63;;;6.25;;
67378;SDS011;54262;44.642;-0.974;2023-06-14T13:23:18;7.80;;;7.43;;
67378;SDS011;54262;44.642;-0.974;2023-06-14T13:25:44;6.47;;;6.13;;
67378;SDS011;54262;44.642;-0.974;2023-06-14T13:28:12;8.30;;;7.57;;
67378;SDS011;54262;44.642;-0.974;2023-06-14T13:30:40;7.50;;;7.10;;
67378;SDS011;54262;44.642;-0.974;2023-06-14T13:33:05;8.27;;;7.35;;
67378;SDS011;54262;44.642;-0.974;2023-06-14T13:35:31;7.65;;;7.15;;
67378;SDS011;54262;44.642;-0.974;2023-06-14T13:37:57;7.30;;;6.65;;
67378;SDS011;54262;44.642;-0.974;2023-06-14T13:40:22;7.35;;;6.95;;
67378;SDS011;54262;44.642;-0.974;2023-06-14T13:42:48;9.13;;;8.43;;
67378;SDS011;54262;44.642;-0.974;2023-06-14T13:45:14;8.68;;;8.05;;
67378;SDS011;54262;44.642;-0.974;2023-06-14T13:47:41;9.48;;;8.68;;
67378;SDS011;54262;44.642;-0.974;2023-06-14T13:50:06;8.52;;;7.57;;
67378;SDS011;54262;44.642;-0.974;2023-06-14T13:52:33;21.63;;;9.85;;
67378;SDS011;54262;44.642;-0.974;2023-06-14T13:54:59;11.05;;;8.50;;
67378;SDS011;54262;44.642;-0.974;2023-06-14T13:57:25;11.18;;;7.40;;
67378;SDS011;54262;44.642;-0.974;2023-06-14T13:59:51;7.43;;;6.93;;
67378;SDS011;54262;44.642;-0.974;2023-06-14T14:02:18;8.10;;;7.43;;
67378;SDS011;54262;44.642;-0.974;2023-06-14T14:04:44;10.38;;;7.47;;
67378;SDS011;54262;44.642;-0.974;2023-06-14T14:07:16;7.18;;;6.65;;
67378;SDS011;54262;44.642;-0.974;2023-06-14T14:09:42;9.48;;;7.15;;
67378;SDS011;54262;44.642;-0.974;2023-06-14T14:12:08;7.30;;;6.80;;
67378;SDS011;54262;44.642;-0.974;2023-06-14T14:14:33;8.18;;;7.78;;
67378;SDS011;54262;44.642;-0.974;2023-06-14T14:16:59;13.27;;;6.78;;
67378;SDS011;54262;44.642;-0.974;2023-06-14T14:19:25;6.72;;;6.22;;
67378;SDS011;54262;44.642;-0.974;2023-06-14T14:21:50;9.73;;;8.98;;
67378;SDS011;54262;44.642;-0.974;2023-06-14T14:24:18;7.65;;;7.13;;
67378;SDS011;54262;44.642;-0.974;2023-06-14T14:26:44;7.35;;;6.68;;
67378;SDS011;54262;44.642;-0.974;2023-06-14T14:29:14;6.65;;;6.20;;
67378;SDS011;54262;44.642;-0.974;2023-06-14T14:31:43;9.77;;;8.82;;
67378;SDS011;54262;44.642;-0.974;2023-06-14T14:34:08;10.68;;;7.78;;
67378;SDS011;54262;44.642;-0.974;2023-06-14T14:36:34;6.90;;;6.50;;
67378;SDS011;54262;44.642;-0.974;2023-06-14T14:39:02;9.68;;;7.93;;
67378;SDS011;54262;44.642;-0.974;2023-06-14T14:41:28;8.55;;;7.75;;
67378;SDS011;54262;44.642;-0.974;2023-06-14T14:43:54;7.15;;;6.57;;
67378;SDS011;54262;44.642;-0.974;2023-06-14T14:46:20;7.43;;;6.68;;
67378;SDS011;54262;44.642;-0.974;2023-06-14T14:48:46;7.00;;;6.40;;
67378;SDS011;54262;44.642;-0.974;2023-06-14T14:51:11;6.82;;;6.43;;
67378;SDS011;54262;44.642;-0.974;2023-06-14T14:53:37;7.18;;;6.78;;